Aiki — WDH3301 — position and weather

sailwx.info

Track history (hours):
 
Tides and Currents Weather Stations Pressure Air Temp Water Temp Dewpoint Dewpoint Depression Visibility Wind Speed Wind Dir Waves Ship Positions

Aiki

Owner: Stevens, Guy L, ALAMEDA, CA. More information available from US FCC via Universal Licensing System and Coast Guard Vessel Documentation Center.

Last reported at 2017-Dec-26 22:16 UTC. Time now 2018-Feb-24 23:42 UTC.
Position N 32°51' W 117°19'.
Warning: this ship's position is months out of date.

Length 14 m.

Type: Sailing vessel. MMSI: 367606330.

Date/timePositionNaut miles runAvg speedWind from/ knotsBaromVisibWave heightAir tempDewpointWater temp
2017-Dec-26 22:16N 32°51' W 117°19'2 6.6
2017-Dec-26 22:00N 32°52' W 117°20'3 6.5
2017-Dec-26 21:29N 32°56' W 117°21'3 6.7
2017-Dec-26 21:00N 32°59' W 117°22'3 6.7
2017-Dec-26 20:30N 33°02' W 117°22'3 6.7
2017-Dec-26 20:00N 33°05' W 117°23'3 6.6
2017-Dec-26 19:30N 33°09' W 117°23'3 6.2
2017-Dec-26 19:00N 33°12' W 117°24'  
2017-Dec-19 14:35N 33°12' W 117°24'0 2.5
2017-Dec-19 14:25N 33°12' W 117°25'2 5.6
2017-Dec-19 14:00N 33°14' W 117°27'4 5.8
2017-Dec-19 13:22N 33°16' W 117°31'8 6.0
2017-Dec-19 12:03N 33°20' W 117°39'1 5.7
2017-Dec-19 11:57N 33°20' W 117°39'3 5.7
2017-Dec-19 11:30N 33°22' W 117°42'79 6.0
2017-Dec-18 22:11N 34°02' W 119°04'1 5.7
2017-Dec-18 21:57N 34°02' W 119°06'2 4.8
2017-Dec-18 21:27N 34°04' W 119°08'2 5.0
2017-Dec-18 21:00N 34°05' W 119°10'3 4.4
2017-Dec-18 20:24N 34°07' W 119°13'  
Track history (hours):
 
Tides and Currents Weather Stations Pressure Air Temp Water Temp Dewpoint Dewpoint Depression Visibility Wind Speed Wind Dir Waves Ship Positions

Aiki

Owner: Stevens, Guy L, ALAMEDA, CA. More information available from US FCC via Universal Licensing System and Coast Guard Vessel Documentation Center.

Last reported at 2017-Dec-26 22:16 UTC. Time now 2018-Feb-24 23:42 UTC.
Position N 32°51' W 117°19'.
Warning: this ship's position is months out of date.

Length 14 m.

Type: Sailing vessel. MMSI: 367606330.

Date/timePositionNaut miles runAvg speedWind from/ knotsBaromVisibWave heightAir tempDewpointWater temp
2017-Dec-26 22:16N 32°51' W 117°19'2 6.6
2017-Dec-26 22:00N 32°52' W 117°20'3 6.5
2017-Dec-26 21:29N 32°56' W 117°21'3 6.7
2017-Dec-26 21:00N 32°59' W 117°22'3 6.7
2017-Dec-26 20:30N 33°02' W 117°22'3 6.7
2017-Dec-26 20:00N 33°05' W 117°23'3 6.6
2017-Dec-26 19:30N 33°09' W 117°23'3 6.2
2017-Dec-26 19:00N 33°12' W 117°24'  
2017-Dec-19 14:35N 33°12' W 117°24'0 2.5
2017-Dec-19 14:25N 33°12' W 117°25'2 5.6
2017-Dec-19 14:00N 33°14' W 117°27'4 5.8
2017-Dec-19 13:22N 33°16' W 117°31'8 6.0
2017-Dec-19 12:03N 33°20' W 117°39'1 5.7
2017-Dec-19 11:57N 33°20' W 117°39'3 5.7
2017-Dec-19 11:30N 33°22' W 117°42'79 6.0
2017-Dec-18 22:11N 34°02' W 119°04'1 5.7
2017-Dec-18 21:57N 34°02' W 119°06'2 4.8
2017-Dec-18 21:27N 34°04' W 119°08'2 5.0
2017-Dec-18 21:00N 34°05' W 119°10'3 4.4
2017-Dec-18 20:24N 34°07' W 119°13'  

Dump ship's entire track history